ADDS METAR Data INFO
IDs: Format: Raw Decoded Include TAF

Data at: 2119 UTC 25 Feb 2018

KGYI 252055Z AUTO 15006KT 10SM CLR 18/05 A2999 RMK AO2 T01790048
KGYI 252035Z AUTO 18009KT 10SM CLR 18/04 A3000 RMK AO2 T01760043
KGYI 252015Z AUTO 18009KT 10SM CLR 18/05 A3001 RMK AO2 T01770050
KGYI 251955Z AUTO 16010KT 10SM CLR 18/04 A3002 RMK AO2 T01750037
KGYI 251935Z AUTO 14010KT 10SM CLR 18/03 A3003 RMK AO2 T01760034
KGYI 251915Z AUTO 15011G15KT 10SM CLR 18/04 A3004 RMK AO2 T01750038
KGYI 251855Z AUTO 17009KT 10SM CLR 17/04 A3004 RMK AO2 T01700041
KGYI 251835Z AUTO 16012KT 10SM CLR 17/05 A3005 RMK AO2 T01680046
KGYI 251815Z AUTO 15012KT 10SM CLR 17/05 A3005 RMK AO2 T01650051
KGYI 251755Z AUTO 16012G16KT 10SM CLR 16/06 A3007 RMK AO2 T01610060 10161 20047
KGYI 251735Z AUTO 15010KT 10SM CLR 15/05 A3007 RMK AO2 T01510051
KGYI 251715Z AUTO 13010G18KT 10SM CLR 14/06 A3009 RMK AO2 T01440060
KGYI 251655Z AUTO 13012KT 10SM CLR 14/05 A3008 RMK AO2 T01360051
KGYI 251635Z AUTO 14010KT 10SM CLR 13/06 A3008 RMK AO2 T01300055
KGYI 251615Z AUTO 13006G09KT 10SM CLR 12/05 A3007 RMK AO2 T01210049
KGYI 251555Z AUTO 13006KT 10SM CLR 12/06 A3008 RMK AO2 T01160057
KGYI 251535Z AUTO 12010KT 10SM CLR 11/06 A3008 RMK AO2 T01050055
KGYI 251515Z AUTO 12009KT 10SM CLR 09/06 A3008 RMK AO2 T00910057
KGYI 251455Z AUTO 10005KT 10SM CLR 09/05 A3008 RMK AO2 T00870051
KGYI 251435Z AUTO 13006KT 10SM CLR 08/05 A3009 RMK AO2 T00780049
KGYI 251415Z AUTO 11003KT 10SM CLR 08/05 A3008 RMK AO2 T00750048
KGYI 251355Z AUTO 14006KT 10SM CLR 06/04 A3008 RMK AO2 T00580042
KGYI 251335Z AUTO 14008KT 10SM CLR 06/04 A3008 RMK AO2 T00550037
KGYI 251315Z AUTO 13007KT 10SM CLR 05/03 A3007 RMK AO2 T00510033
KGYI 251255Z AUTO 12004KT 10SM CLR 05/03 A3006 RMK AO2 T00500031
KGYI 251235Z AUTO 12006KT 10SM CLR 05/03 A3005 RMK AO2 T00490030
KGYI 251215Z AUTO 09003KT 10SM CLR 05/03 A3004 RMK AO2 T00510030
KGYI 251155Z AUTO 10003KT 10SM CLR 05/03 A3004 RMK AO2 70035 T00470029 10062 20027
KGYI 251135Z AUTO 08003KT 10SM CLR 05/03 A3003 RMK AO2 T00470029
KGYI 251115Z AUTO 09004KT 10SM CLR 04/02 A3003 RMK AO2 T00380024
KGYI 251055Z AUTO 05005KT 10SM CLR 05/03 A3002 RMK AO2 T00450025
KGYI 251035Z AUTO 09004KT 10SM CLR 05/03 A3003 RMK AO2 T00470028
KGYI 251015Z AUTO 08003KT 10SM CLR 04/03 A3002 RMK AO2 T00400025
KGYI 250955Z AUTO 06004KT 10SM CLR 03/02 A3002 RMK AO2 T00290018
KGYI 250935Z AUTO 07004KT 10SM CLR 03/03 A3001 RMK AO2 T00340025
KGYI 250915Z AUTO 05004KT 10SM CLR 03/02 A3002 RMK AO2 T00320022
KGYI 250855Z AUTO 06004KT 10SM CLR 04/02 A3002 RMK AO2 T00400024
KGYI 250835Z AUTO 07005KT 10SM CLR 05/03 A3002 RMK AO2 T00450029
KGYI 250815Z AUTO 07006KT 10SM CLR 05/03 A3003 RMK AO2 T00530032
KGYI 250755Z AUTO 07004KT 10SM CLR 05/03 A3003 RMK AO2 T00480029
KGYI 250735Z AUTO 06005KT 10SM CLR 05/03 A3004 RMK AO2 T00520032
KGYI 250715Z AUTO 07005KT 10SM CLR 06/03 A3005 RMK AO2 T00550034
KGYI 250655Z AUTO 05005KT 10SM CLR 06/03 A3005 RMK AO2 T00560034
KGYI 250635Z AUTO 05006KT 10SM CLR 06/04 A3005 RMK AO2 T00610038
KGYI 250615Z AUTO 06004KT 10SM CLR 06/04 A3004 RMK AO2 T00620041
KGYI 250555Z AUTO 05004KT 10SM CLR 06/04 A3004 RMK AO2 T00600044 10122 20060 401500060
KGYI 250535Z AUTO 03004KT 10SM CLR 06/05 A3004 RMK AO2 T00640045
KGYI 250515Z AUTO 04005KT 10SM CLR 07/05 A3003 RMK AO2 T00700051
KGYI 250455Z AUTO 02005KT 10SM CLR 07/05 A3003 RMK AO2 T00710051
KGYI 250435Z AUTO 01006KT 10SM CLR 08/06 A3002 RMK AO2 T00750055
KGYI 250415Z AUTO 02005KT 10SM CLR 08/06 A3002 RMK AO2 T00760057
KGYI 250355Z AUTO 02004KT 10SM CLR 08/06 A3001 RMK AO2 T00750055
KGYI 250335Z AUTO 34005KT 10SM CLR 08/05 A3001 RMK AO2 T00790054
KGYI 250315Z AUTO 01004KT 10SM CLR 09/06 A3000 RMK AO2 T00930058
KGYI 250255Z AUTO 04003KT 10SM CLR 09/06 A2999 RMK AO2 T00920060
KGYI 250235Z AUTO 00000KT 10SM CLR 09/06 A2998 RMK AO2 T00920058
KGYI 250215Z AUTO 00000KT 10SM CLR 09/06 A2997 RMK AO2 T00940059
KGYI 250155Z AUTO 02003KT 10SM CLR 08/06 A2996 RMK AO2 T00800057
KGYI 250135Z AUTO 34003KT 10SM CLR 10/06 A2995 RMK AO2 T01040058
KGYI 250115Z AUTO 00000KT 10SM CLR 10/06 A2995 RMK AO2 T01040057
KGYI 250055Z AUTO 26004KT 10SM CLR 11/06 A2993 RMK AO2 T01090060
KGYI 250035Z AUTO 26004KT 10SM CLR 11/06 A2992 RMK AO2 T01120059
KGYI 250015Z AUTO 25004KT 10SM CLR 12/07 A2991 RMK AO2 T01150065
KGYI 242355Z AUTO 27005KT 10SM CLR 12/07 A2990 RMK AO2 T01230070 10150 20080
KGYI 242335Z AUTO 28006KT 10SM CLR 14/06 A2989 RMK AO2 T01390064
KGYI 242315Z AUTO 29008KT 10SM CLR 15/06 A2989 RMK AO2 T01470063
KGYI 242255Z AUTO 29007KT 10SM CLR 14/07 A2988 RMK AO2 T01410066
KGYI 242235Z AUTO 29008KT 10SM CLR 15/07 A2988 RMK AO2 T01480074
KGYI 242215Z AUTO 27010KT 10SM CLR 15/09 A2987 RMK AO2 T01480089
KGYI 242155Z AUTO 28008KT 10SM CLR 15/10 A2987 RMK AO2 T01480095
KGYI 242135Z AUTO 28010KT 10SM CLR 14/09 A2987 RMK AO2 T01410094
KGYI 242115Z AUTO 29011KT 10SM CLR 14/10 A2986 RMK AO2 T01420099
KGYI 242055Z AUTO 30012KT 10SM SCT020 14/10 A2985 RMK AO2 T01420099
KGYI 242035Z AUTO 29011KT 10SM CLR 14/10 A2985 RMK AO2 T01360102
KGYI 242015Z AUTO 29010KT 10SM SCT017 13/10 A2986 RMK AO2 T01270095
KGYI 241955Z AUTO 30013KT 10SM BKN015 BKN021 12/10 A2986 RMK AO2 T01210097
KGYI 241935Z AUTO 30012G18KT 10SM OVC013 11/10 A2986 RMK AO2 T01140097
KGYI 241915Z AUTO 29014KT 10SM BKN010 OVC015 11/10 A2986 RMK AO2 T01120098
KGYI 241855Z AUTO 29012KT 10SM BKN007 BKN033 BKN080 11/10 A2986 RMK AO2 T01060101
KGYI 241835Z AUTO 30012KT 10SM BKN007 BKN034 OVC080 10/09 A2987 RMK AO2 LTG DSNT E AND SE T00960093
KGYI 241815Z AUTO 28010KT 10SM BKN007 OVC034 08/08 A2988 RMK AO2 T00840081
KGYI 241755Z AUTO 27011KT 10SM BKN005 BKN013 OVC020 08/08 A2988 RMK AO2 LTG DSNT NE THRU S P0002 60035 T00790076 10146 20075
KGYI 241735Z AUTO 29013G17KT 10SM SCT004 SCT008 OVC018 08/07 A2987 RMK AO2 LTG DSNT E AND S P0002 T00750072
KGYI 241715Z AUTO 29006G09KT 3SM -VCTSRA BKN006 BKN010 OVC020 08/07 A2987 RMK AO2 LTG DSNT NE THRU S P0001 T00750071
KGYI 241655Z AUTO 29010KT 2SM -TSRA BKN006 BKN013 OVC020 08/07 A2986 RMK AO2 VIS 1 1/2V5 LTG DSNT ALQS P0021 T00750073
KGYI 241635Z AUTO 29016G23KT 1 1/2SM -VCTSRA BKN004 BKN015 OVC021 08/08 A2986 RMK AO2 LTG DSNT ALQS P0014 T00760075
KGYI 241615Z AUTO 29017G25KT 1 3/4SM RA OVC004 11/11 A2982 RMK AO2 LTG DSNT S THRU N P0003 T01110108
KGYI 241555Z AUTO 18009KT 4SM -RA OVC004 14/14 A2979 RMK AO2 LTG DSNT W THRU NE P0001 T01410140
KGYI 241535Z AUTO 15007KT 10SM VCTS OVC006 13/13 A2980 RMK AO2 LTG DSNT ALQS T01340133
KGYI 241515Z AUTO 14006KT 10SM BKN008 OVC015 13/13 A2980 RMK AO2 LTG DSNT ALQS T01290128
KGYI 241455Z AUTO 12006KT 10SM SCT008 BKN012 BKN016 11/11 A2978 RMK AO2 LTG DSNT ALQS P0011 60011 T01140114
KGYI 241435Z AUTO 00000KT 3SM -VCTSRA BKN002 BKN008 10/10 A2982 RMK AO2 LTG DSNT ALQS P0011 T01010101
KGYI 241415Z AUTO 03003KT 1SM VCTS BR OVC002 09/09 A2982 RMK AO2 LTG DSNT ALQS T00920091
KGYI 241355Z AUTO 36003KT 2SM BR OVC002 10/10 A2982 RMK AO2 LTG DSNT ALQS T00950095
KGYI 241335Z AUTO 05006KT 1 1/2SM BR OVC002 09/09 A2982 RMK AO2 LTG DSNT ALQS T00920091
KGYI 241315Z AUTO 01004KT 4SM BR OVC002 09/09 A2983 RMK AO2 LTG DSNT S AND NW T00900089
KGYI 241255Z AUTO 06005KT 4SM -TSRA OVC002 09/09 A2984 RMK AO2 LTG DSNT ALQS T00890089
KGYI 241235Z AUTO 11008KT TS 10/10 A2983 RMK AO2 LTG DSNT ALQS T00950095
KGYI 241215Z AUTO 12010KT 2 1/2SM -RA OVC004 08/08 A2988 RMK AO2 LTG DSNT SE AND SW P0002 T00810080
KGYI 241155Z AUTO 11004KT 1SM -RA OVC002 08/08 A2992 RMK AO2 70055 T00780077 10078 20072
KGYI 241135Z AUTO 00000KT 1SM BR OVC002 08/08 A2991 RMK AO2 LTG DSNT SW T00770076
KGYI 241115Z AUTO 06003KT 1SM BR OVC002 08/08 A2989 RMK AO2 T00770076
KGYI 241055Z AUTO 01004KT 1SM BR OVC002 08/08 A2991 RMK AO2 T00760075
KGYI 241035Z AUTO 00000KT 1SM BR OVC002 08/08 A2993 RMK AO2 T00750075
KGYI 241015Z AUTO 00000KT 1 1/2SM BR OVC004 08/08 A2995 RMK AO2 T00750075
KGYI 240955Z AUTO 00000KT 1 3/4SM BR OVC006 08/08 A2996 RMK AO2 T00750075
KGYI 240935Z AUTO 00000KT 1 1/2SM BR OVC006 08/08 A2996 RMK AO2 T00750075